sensor_id;sensor_type;location;lat;lon;timestamp;temperature;humidity
7792;DHT22;3940;49.892;10.886;2022-10-26T00:01:36;11.40;99.90
7792;DHT22;3940;49.892;10.886;2022-10-26T00:04:20;11.40;99.90
7792;DHT22;3940;49.892;10.886;2022-10-26T00:07:04;11.40;99.90
7792;DHT22;3940;49.892;10.886;2022-10-26T00:09:48;11.30;99.90
7792;DHT22;3940;49.892;10.886;2022-10-26T00:12:33;11.30;99.90
7792;DHT22;3940;49.892;10.886;2022-10-26T00:15:18;11.40;99.90
7792;DHT22;3940;49.892;10.886;2022-10-26T00:18:03;11.40;99.90
7792;DHT22;3940;49.892;10.886;2022-10-26T00:20:47;11.40;99.90
7792;DHT22;3940;49.892;10.886;2022-10-26T00:23:32;11.40;99.90
7792;DHT22;3940;49.892;10.886;2022-10-26T00:26:17;11.30;99.90
7792;DHT22;3940;49.892;10.886;2022-10-26T00:29:01;11.40;99.90
7792;DHT22;3940;49.892;10.886;2022-10-26T00:31:46;11.30;99.90
7792;DHT22;3940;49.892;10.886;2022-10-26T00:34:31;11.30;99.90
7792;DHT22;3940;49.892;10.886;2022-10-26T00:37:15;11.30;99.90
7792;DHT22;3940;49.892;10.886;2022-10-26T00:39:59;11.30;99.90
7792;DHT22;3940;49.892;10.886;2022-10-26T00:42:44;11.20;99.90
7792;DHT22;3940;49.892;10.886;2022-10-26T00:45:29;11.20;99.90
7792;DHT22;3940;49.892;10.886;2022-10-26T00:48:22;11.10;99.90
7792;DHT22;3940;49.892;10.886;2022-10-26T00:51:13;11.00;99.90
7792;DHT22;3940;49.892;10.886;2022-10-26T00:54:01;11.00;99.90
7792;DHT22;3940;49.892;10.886;2022-10-26T00:56:48;11.00;99.90
7792;DHT22;3940;49.892;10.886;2022-10-26T00:59:34;11.00;99.90
7792;DHT22;3940;49.892;10.886;2022-10-26T01:02:18;11.00;99.90
7792;DHT22;3940;49.892;10.886;2022-10-26T01:05:04;11.00;99.90
7792;DHT22;3940;49.892;10.886;2022-10-26T01:07:50;11.00;99.90
7792;DHT22;3940;49.892;10.886;2022-10-26T01:10:35;11.00;99.90
7792;DHT22;3940;49.892;10.886;2022-10-26T01:13:21;11.00;99.90
7792;DHT22;3940;49.892;10.886;2022-10-26T01:16:45;11.00;99.90
7792;DHT22;3940;49.892;10.886;2022-10-26T01:22:56;11.00;99.90
7792;DHT22;3940;49.892;10.886;2022-10-26T01:29:10;10.90;99.90
7792;DHT22;3940;49.892;10.886;2022-10-26T01:32:07;10.80;99.90
7792;DHT22;3940;49.892;10.886;2022-10-26T01:35:07;10.80;99.90
7792;DHT22;3940;49.892;10.886;2022-10-26T01:38:01;10.90;99.90
7792;DHT22;3940;49.892;10.886;2022-10-26T01:40:53;10.80;99.90
7792;DHT22;3940;49.892;10.886;2022-10-26T01:43:47;10.70;99.90
7792;DHT22;3940;49.892;10.886;2022-10-26T01:46:37;10.70;99.90
7792;DHT22;3940;49.892;10.886;2022-10-26T01:49:25;10.70;99.90
7792;DHT22;3940;49.892;10.886;2022-10-26T01:52:11;10.70;99.90
7792;DHT22;3940;49.892;10.886;2022-10-26T01:55:01;10.60;99.90
7792;DHT22;3940;49.892;10.886;2022-10-26T01:57:45;10.70;99.90
7792;DHT22;3940;49.892;10.886;2022-10-26T02:00:32;10.70;99.90
7792;DHT22;3940;49.892;10.886;2022-10-26T02:03:32;10.70;99.90
7792;DHT22;3940;49.892;10.886;2022-10-26T02:12:44;10.80;99.90
7792;DHT22;3940;49.892;10.886;2022-10-26T02:15:53;10.80;99.90
7792;DHT22;3940;49.892;10.886;2022-10-26T02:18:53;10.80;99.90
7792;DHT22;3940;49.892;10.886;2022-10-26T02:21:46;10.80;99.90
7792;DHT22;3940;49.892;10.886;2022-10-26T02:24:32;10.80;99.90
7792;DHT22;3940;49.892;10.886;2022-10-26T02:27:21;10.90;99.90
7792;DHT22;3940;49.892;10.886;2022-10-26T02:30:08;10.90;99.90
7792;DHT22;3940;49.892;10.886;2022-10-26T02:32:54;10.90;99.90
7792;DHT22;3940;49.892;10.886;2022-10-26T02:35:41;11.00;99.90
7792;DHT22;3940;49.892;10.886;2022-10-26T02:38:28;11.00;99.90
7792;DHT22;3940;49.892;10.886;2022-10-26T02:41:15;10.90;99.90
7792;DHT22;3940;49.892;10.886;2022-10-26T02:44:07;11.00;99.90
7792;DHT22;3940;49.892;10.886;2022-10-26T02:46:54;10.90;99.90
7792;DHT22;3940;49.892;10.886;2022-10-26T02:49:40;10.90;99.90
7792;DHT22;3940;49.892;10.886;2022-10-26T02:55:35;10.90;99.90
7792;DHT22;3940;49.892;10.886;2022-10-26T02:58:27;11.00;99.90
7792;DHT22;3940;49.892;10.886;2022-10-26T03:01:13;10.90;99.90
7792;DHT22;3940;49.892;10.886;2022-10-26T03:03:58;10.80;99.90
7792;DHT22;3940;49.892;10.886;2022-10-26T03:06:52;10.90;99.90
7792;DHT22;3940;49.892;10.886;2022-10-26T03:09:36;10.90;99.90
7792;DHT22;3940;49.892;10.886;2022-10-26T03:12:20;10.80;99.90
7792;DHT22;3940;49.892;10.886;2022-10-26T03:15:05;10.60;99.90
7792;DHT22;3940;49.892;10.886;2022-10-26T03:17:49;10.40;99.90
7792;DHT22;3940;49.892;10.886;2022-10-26T03:20:33;10.40;99.90
7792;DHT22;3940;49.892;10.886;2022-10-26T03:23:18;10.50;99.90
7792;DHT22;3940;49.892;10.886;2022-10-26T03:26:02;10.40;99.90
7792;DHT22;3940;49.892;10.886;2022-10-26T03:28:46;10.50;99.90
7792;DHT22;3940;49.892;10.886;2022-10-26T03:31:30;10.60;99.90
7792;DHT22;3940;49.892;10.886;2022-10-26T03:34:14;10.70;99.90
7792;DHT22;3940;49.892;10.886;2022-10-26T03:36:58;10.80;99.90
7792;DHT22;3940;49.892;10.886;2022-10-26T03:39:43;10.70;99.90
7792;DHT22;3940;49.892;10.886;2022-10-26T03:42:27;10.50;99.90
7792;DHT22;3940;49.892;10.886;2022-10-26T03:45:16;10.40;99.90
7792;DHT22;3940;49.892;10.886;2022-10-26T03:48:00;10.20;99.90
7792;DHT22;3940;49.892;10.886;2022-10-26T03:50:44;10.10;99.90
7792;DHT22;3940;49.892;10.886;2022-10-26T03:53:28;10.00;99.90
7792;DHT22;3940;49.892;10.886;2022-10-26T03:56:12;9.90;99.90
7792;DHT22;3940;49.892;10.886;2022-10-26T03:58:56;10.00;99.90
7792;DHT22;3940;49.892;10.886;2022-10-26T04:01:41;10.10;99.90
7792;DHT22;3940;49.892;10.886;2022-10-26T04:04:25;9.90;99.90
7792;DHT22;3940;49.892;10.886;2022-10-26T04:07:09;10.30;99.90
7792;DHT22;3940;49.892;10.886;2022-10-26T04:09:53;10.40;99.90
7792;DHT22;3940;49.892;10.886;2022-10-26T04:12:38;10.60;99.90
7792;DHT22;3940;49.892;10.886;2022-10-26T04:15:22;10.80;99.90
7792;DHT22;3940;49.892;10.886;2022-10-26T04:18:08;10.90;99.90
7792;DHT22;3940;49.892;10.886;2022-10-26T04:20:52;11.00;99.90
7792;DHT22;3940;49.892;10.886;2022-10-26T04:23:36;11.00;99.90
7792;DHT22;3940;49.892;10.886;2022-10-26T04:26:20;11.00;99.90
7792;DHT22;3940;49.892;10.886;2022-10-26T04:29:04;11.00;99.90
7792;DHT22;3940;49.892;10.886;2022-10-26T04:31:49;11.00;99.90
7792;DHT22;3940;49.892;10.886;2022-10-26T04:34:34;11.00;99.90
7792;DHT22;3940;49.892;10.886;2022-10-26T04:37:18;11.10;99.90
7792;DHT22;3940;49.892;10.886;2022-10-26T04:40:03;11.10;99.90
7792;DHT22;3940;49.892;10.886;2022-10-26T04:42:47;11.10;99.90
7792;DHT22;3940;49.892;10.886;2022-10-26T04:45:31;11.10;99.90
7792;DHT22;3940;49.892;10.886;2022-10-26T04:48:15;11.00;99.90
7792;DHT22;3940;49.892;10.886;2022-10-26T04:51:00;11.00;99.90
7792;DHT22;3940;49.892;10.886;2022-10-26T04:53:44;11.00;99.90
7792;DHT22;3940;49.892;10.886;2022-10-26T04:56:29;10.90;99.90
7792;DHT22;3940;49.892;10.886;2022-10-26T04:59:13;10.90;99.90
7792;DHT22;3940;49.892;10.886;2022-10-26T05:01:58;10.90;99.90
7792;DHT22;3940;49.892;10.886;2022-10-26T05:04:42;11.10;99.90
7792;DHT22;3940;49.892;10.886;2022-10-26T05:07:26;11.10;99.90
7792;DHT22;3940;49.892;10.886;2022-10-26T05:10:10;11.10;99.90
7792;DHT22;3940;49.892;10.886;2022-10-26T05:12:56;11.20;99.90
7792;DHT22;3940;49.892;10.886;2022-10-26T05:15:42;11.20;99.90
7792;DHT22;3940;49.892;10.886;2022-10-26T05:18:26;11.30;99.90
7792;DHT22;3940;49.892;10.886;2022-10-26T05:21:10;11.30;99.90
7792;DHT22;3940;49.892;10.886;2022-10-26T05:23:55;11.30;99.90
7792;DHT22;3940;49.892;10.886;2022-10-26T05:26:39;11.30;99.90
7792;DHT22;3940;49.892;10.886;2022-10-26T05:29:23;11.30;99.90
7792;DHT22;3940;49.892;10.886;2022-10-26T05:32:07;11.30;99.90
7792;DHT22;3940;49.892;10.886;2022-10-26T05:34:52;11.40;99.90
7792;DHT22;3940;49.892;10.886;2022-10-26T05:37:36;11.30;99.90
7792;DHT22;3940;49.892;10.886;2022-10-26T05:40:20;11.30;99.90
7792;DHT22;3940;49.892;10.886;2022-10-26T05:43:05;11.40;99.90
7792;DHT22;3940;49.892;10.886;2022-10-26T05:45:50;11.40;99.90
7792;DHT22;3940;49.892;10.886;2022-10-26T05:48:34;11.50;99.90
7792;DHT22;3940;49.892;10.886;2022-10-26T05:51:18;11.40;99.90
7792;DHT22;3940;49.892;10.886;2022-10-26T05:54:02;11.40;99.90
7792;DHT22;3940;49.892;10.886;2022-10-26T05:56:47;11.20;99.90
7792;DHT22;3940;49.892;10.886;2022-10-26T05:59:32;11.30;99.90
7792;DHT22;3940;49.892;10.886;2022-10-26T06:02:32;11.30;99.90
7792;DHT22;3940;49.892;10.886;2022-10-26T06:05:25;11.30;99.90
7792;DHT22;3940;49.892;10.886;2022-10-26T06:08:11;11.30;99.90
7792;DHT22;3940;49.892;10.886;2022-10-26T06:10:56;11.30;99.90
7792;DHT22;3940;49.892;10.886;2022-10-26T06:13:42;11.10;99.90
7792;DHT22;3940;49.892;10.886;2022-10-26T06:23:12;10.90;99.90
7792;DHT22;3940;49.892;10.886;2022-10-26T06:26:15;11.00;99.90
7792;DHT22;3940;49.892;10.886;2022-10-26T06:29:19;11.20;99.90
7792;DHT22;3940;49.892;10.886;2022-10-26T06:32:07;11.30;99.90
7792;DHT22;3940;49.892;10.886;2022-10-26T06:37:54;11.40;99.90
7792;DHT22;3940;49.892;10.886;2022-10-26T06:40:42;11.40;99.90
7792;DHT22;3940;49.892;10.886;2022-10-26T06:43:30;11.40;99.90
7792;DHT22;3940;49.892;10.886;2022-10-26T06:49:32;11.60;99.90
7792;DHT22;3940;49.892;10.886;2022-10-26T06:52:26;11.60;99.90
7792;DHT22;3940;49.892;10.886;2022-10-26T06:55:13;11.60;99.90
7792;DHT22;3940;49.892;10.886;2022-10-26T06:57:58;11.60;99.90
7792;DHT22;3940;49.892;10.886;2022-10-26T07:00:43;11.60;99.90
7792;DHT22;3940;49.892;10.886;2022-10-26T07:03:29;11.70;99.90
7792;DHT22;3940;49.892;10.886;2022-10-26T07:06:14;11.70;99.90
7792;DHT22;3940;49.892;10.886;2022-10-26T07:08:58;11.80;99.90
7792;DHT22;3940;49.892;10.886;2022-10-26T07:11:42;11.80;99.90
7792;DHT22;3940;49.892;10.886;2022-10-26T07:14:26;11.90;99.90
7792;DHT22;3940;49.892;10.886;2022-10-26T07:17:10;12.00;99.90
7792;DHT22;3940;49.892;10.886;2022-10-26T07:19:56;12.10;99.90
7792;DHT22;3940;49.892;10.886;2022-10-26T07:22:40;12.10;99.90
7792;DHT22;3940;49.892;10.886;2022-10-26T07:25:27;12.10;99.90
7792;DHT22;3940;49.892;10.886;2022-10-26T07:28:11;12.10;99.90
7792;DHT22;3940;49.892;10.886;2022-10-26T07:30:57;12.10;99.90
7792;DHT22;3940;49.892;10.886;2022-10-26T07:33:42;12.10;99.90
7792;DHT22;3940;49.892;10.886;2022-10-26T07:36:28;12.10;99.90
7792;DHT22;3940;49.892;10.886;2022-10-26T07:39:12;12.10;99.90
7792;DHT22;3940;49.892;10.886;2022-10-26T07:41:57;12.30;99.90
7792;DHT22;3940;49.892;10.886;2022-10-26T07:44:41;12.30;99.90
7792;DHT22;3940;49.892;10.886;2022-10-26T07:47:25;12.40;99.90
7792;DHT22;3940;49.892;10.886;2022-10-26T07:50:09;12.50;99.90
7792;DHT22;3940;49.892;10.886;2022-10-26T07:52:55;12.60;99.90
7792;DHT22;3940;49.892;10.886;2022-10-26T07:55:41;12.70;99.90
7792;DHT22;3940;49.892;10.886;2022-10-26T07:58:25;12.50;99.90
7792;DHT22;3940;49.892;10.886;2022-10-26T08:01:13;12.40;99.90
7792;DHT22;3940;49.892;10.886;2022-10-26T08:03:57;12.40;99.90
7792;DHT22;3940;49.892;10.886;2022-10-26T08:06:41;12.40;99.90
7792;DHT22;3940;49.892;10.886;2022-10-26T08:09:26;12.50;99.90
7792;DHT22;3940;49.892;10.886;2022-10-26T08:12:10;12.60;99.90
7792;DHT22;3940;49.892;10.886;2022-10-26T08:14:56;12.70;99.90
7792;DHT22;3940;49.892;10.886;2022-10-26T08:17:40;12.80;99.90
7792;DHT22;3940;49.892;10.886;2022-10-26T08:20:25;12.90;99.90
7792;DHT22;3940;49.892;10.886;2022-10-26T08:23:09;12.90;99.90
7792;DHT22;3940;49.892;10.886;2022-10-26T08:25:58;13.00;99.90
7792;DHT22;3940;49.892;10.886;2022-10-26T08:28:42;13.20;99.90
7792;DHT22;3940;49.892;10.886;2022-10-26T08:31:27;13.30;99.90
7792;DHT22;3940;49.892;10.886;2022-10-26T08:34:11;13.40;99.90
7792;DHT22;3940;49.892;10.886;2022-10-26T08:36:56;13.50;99.90
7792;DHT22;3940;49.892;10.886;2022-10-26T08:39:40;13.50;99.90
7792;DHT22;3940;49.892;10.886;2022-10-26T08:42:31;13.50;99.90
7792;DHT22;3940;49.892;10.886;2022-10-26T08:45:28;13.60;99.90
7792;DHT22;3940;49.892;10.886;2022-10-26T08:48:19;13.60;99.90
7792;DHT22;3940;49.892;10.886;2022-10-26T08:51:12;13.70;99.90
7792;DHT22;3940;49.892;10.886;2022-10-26T08:54:04;13.70;99.90
7792;DHT22;3940;49.892;10.886;2022-10-26T08:56:58;13.70;99.90
7792;DHT22;3940;49.892;10.886;2022-10-26T09:00:06;13.80;99.90
7792;DHT22;3940;49.892;10.886;2022-10-26T09:02:53;13.90;99.90
7792;DHT22;3940;49.892;10.886;2022-10-26T09:05:55;13.80;99.90
7792;DHT22;3940;49.892;10.886;2022-10-26T09:08:52;13.80;99.90
7792;DHT22;3940;49.892;10.886;2022-10-26T09:12:17;13.80;99.90
7792;DHT22;3940;49.892;10.886;2022-10-26T09:19:22;13.80;99.90
7792;DHT22;3940;49.892;10.886;2022-10-26T09:24:54;14.00;99.90
7792;DHT22;3940;49.892;10.886;2022-10-26T09:27:44;14.00;99.90
7792;DHT22;3940;49.892;10.886;2022-10-26T09:30:29;14.10;99.90
7792;DHT22;3940;49.892;10.886;2022-10-26T09:33:19;14.20;99.90
7792;DHT22;3940;49.892;10.886;2022-10-26T09:36:08;14.20;99.90
7792;DHT22;3940;49.892;10.886;2022-10-26T09:39:02;14.20;99.90
7792;DHT22;3940;49.892;10.886;2022-10-26T09:41:54;14.20;99.90
7792;DHT22;3940;49.892;10.886;2022-10-26T09:44:54;14.30;99.90
7792;DHT22;3940;49.892;10.886;2022-10-26T09:47:45;14.30;99.90
7792;DHT22;3940;49.892;10.886;2022-10-26T09:50:34;14.30;99.90
7792;DHT22;3940;49.892;10.886;2022-10-26T09:53:19;14.40;99.90
7792;DHT22;3940;49.892;10.886;2022-10-26T09:56:06;14.50;99.90
7792;DHT22;3940;49.892;10.886;2022-10-26T09:58:55;14.50;99.90
7792;DHT22;3940;49.892;10.886;2022-10-26T10:01:43;14.60;99.90
7792;DHT22;3940;49.892;10.886;2022-10-26T10:04:30;14.70;99.90
7792;DHT22;3940;49.892;10.886;2022-10-26T10:07:17;14.80;99.90
7792;DHT22;3940;49.892;10.886;2022-10-26T10:10:16;14.90;99.90
7792;DHT22;3940;49.892;10.886;2022-10-26T10:13:14;15.10;99.90
7792;DHT22;3940;49.892;10.886;2022-10-26T10:16:04;15.00;99.90
7792;DHT22;3940;49.892;10.886;2022-10-26T10:18:58;15.20;99.90
7792;DHT22;3940;49.892;10.886;2022-10-26T10:21:51;15.40;99.90
7792;DHT22;3940;49.892;10.886;2022-10-26T10:24:42;15.50;99.90
7792;DHT22;3940;49.892;10.886;2022-10-26T10:27:52;15.70;99.90
7792;DHT22;3940;49.892;10.886;2022-10-26T10:30:51;16.10;99.90
7792;DHT22;3940;49.892;10.886;2022-10-26T10:33:42;16.40;99.90
7792;DHT22;3940;49.892;10.886;2022-10-26T10:36:29;16.50;99.90
7792;DHT22;3940;49.892;10.886;2022-10-26T10:39:35;18.50;99.90
7792;DHT22;3940;49.892;10.886;2022-10-26T10:42:25;19.00;99.90
7792;DHT22;3940;49.892;10.886;2022-10-26T10:45:22;19.30;99.90
7792;DHT22;3940;49.892;10.886;2022-10-26T10:48:17;19.60;99.90
7792;DHT22;3940;49.892;10.886;2022-10-26T10:51:06;19.30;99.90
7792;DHT22;3940;49.892;10.886;2022-10-26T10:53:56;20.00;99.90
7792;DHT22;3940;49.892;10.886;2022-10-26T10:56:50;20.70;99.90
7792;DHT22;3940;49.892;10.886;2022-10-26T11:00:09;21.10;99.90
7792;DHT22;3940;49.892;10.886;2022-10-26T11:06:15;21.20;99.90
7792;DHT22;3940;49.892;10.886;2022-10-26T11:09:10;21.70;99.90
7792;DHT22;3940;49.892;10.886;2022-10-26T11:15:02;20.90;99.90
7792;DHT22;3940;49.892;10.886;2022-10-26T11:18:01;22.10;99.90
7792;DHT22;3940;49.892;10.886;2022-10-26T11:20:57;21.80;99.90
7792;DHT22;3940;49.892;10.886;2022-10-26T11:23:49;21.80;99.90
7792;DHT22;3940;49.892;10.886;2022-10-26T11:26:45;20.80;99.90
7792;DHT22;3940;49.892;10.886;2022-10-26T11:29:39;19.70;99.90
7792;DHT22;3940;49.892;10.886;2022-10-26T11:32:36;19.70;99.90
7792;DHT22;3940;49.892;10.886;2022-10-26T11:35:34;19.70;99.90
7792;DHT22;3940;49.892;10.886;2022-10-26T11:38:39;19.90;99.90
7792;DHT22;3940;49.892;10.886;2022-10-26T11:41:39;20.90;99.90
7792;DHT22;3940;49.892;10.886;2022-10-26T11:44:34;20.20;99.90
7792;DHT22;3940;49.892;10.886;2022-10-26T11:47:27;19.70;99.90
7792;DHT22;3940;49.892;10.886;2022-10-26T11:50:21;19.00;99.90
7792;DHT22;3940;49.892;10.886;2022-10-26T11:53:29;19.10;99.90
7792;DHT22;3940;49.892;10.886;2022-10-26T11:56:25;19.00;99.90
7792;DHT22;3940;49.892;10.886;2022-10-26T11:59:19;19.60;99.90
7792;DHT22;3940;49.892;10.886;2022-10-26T12:02:09;19.30;99.90
7792;DHT22;3940;49.892;10.886;2022-10-26T12:05:02;19.80;99.90
7792;DHT22;3940;49.892;10.886;2022-10-26T12:07:54;19.80;99.90
7792;DHT22;3940;49.892;10.886;2022-10-26T12:10:42;20.00;99.90
7792;DHT22;3940;49.892;10.886;2022-10-26T12:13:40;20.50;99.90
7792;DHT22;3940;49.892;10.886;2022-10-26T12:16:55;21.10;99.90
7792;DHT22;3940;49.892;10.886;2022-10-26T12:20:02;20.00;99.90
7792;DHT22;3940;49.892;10.886;2022-10-26T12:22:51;20.40;99.90
7792;DHT22;3940;49.892;10.886;2022-10-26T12:25:37;20.50;99.90
7792;DHT22;3940;49.892;10.886;2022-10-26T12:28:40;19.80;99.90
7792;DHT22;3940;49.892;10.886;2022-10-26T12:31:41;19.40;99.90
7792;DHT22;3940;49.892;10.886;2022-10-26T12:34:57;19.20;99.90
7792;DHT22;3940;49.892;10.886;2022-10-26T12:37:44;19.40;99.90
7792;DHT22;3940;49.892;10.886;2022-10-26T12:40:39;19.90;99.90
7792;DHT22;3940;49.892;10.886;2022-10-26T12:43:34;19.90;99.90
7792;DHT22;3940;49.892;10.886;2022-10-26T12:46:39;20.00;99.90
7792;DHT22;3940;49.892;10.886;2022-10-26T12:49:57;19.80;99.90
7792;DHT22;3940;49.892;10.886;2022-10-26T12:53:04;19.60;99.90
7792;DHT22;3940;49.892;10.886;2022-10-26T12:56:03;19.50;99.90
7792;DHT22;3940;49.892;10.886;2022-10-26T12:59:10;19.50;99.90
7792;DHT22;3940;49.892;10.886;2022-10-26T13:05:28;19.20;99.90
7792;DHT22;3940;49.892;10.886;2022-10-26T13:08:17;18.90;99.90
7792;DHT22;3940;49.892;10.886;2022-10-26T13:11:21;19.00;99.90
7792;DHT22;3940;49.892;10.886;2022-10-26T13:14:19;19.10;99.90
7792;DHT22;3940;49.892;10.886;2022-10-26T13:17:06;20.30;99.90
7792;DHT22;3940;49.892;10.886;2022-10-26T13:20:04;20.90;99.90
7792;DHT22;3940;49.892;10.886;2022-10-26T13:23:15;21.60;99.90
7792;DHT22;3940;49.892;10.886;2022-10-26T13:26:11;22.20;99.90
7792;DHT22;3940;49.892;10.886;2022-10-26T13:28:59;23.00;99.90
7792;DHT22;3940;49.892;10.886;2022-10-26T13:31:54;23.70;99.90
7792;DHT22;3940;49.892;10.886;2022-10-26T13:34:40;23.70;99.90
7792;DHT22;3940;49.892;10.886;2022-10-26T13:37:27;23.80;99.90
7792;DHT22;3940;49.892;10.886;2022-10-26T13:40:19;23.10;99.90
7792;DHT22;3940;49.892;10.886;2022-10-26T13:43:06;23.40;99.90
7792;DHT22;3940;49.892;10.886;2022-10-26T13:45:58;24.20;99.90
7792;DHT22;3940;49.892;10.886;2022-10-26T13:48:45;23.40;99.90
7792;DHT22;3940;49.892;10.886;2022-10-26T13:51:38;23.70;99.90
7792;DHT22;3940;49.892;10.886;2022-10-26T13:54:46;23.60;99.90
7792;DHT22;3940;49.892;10.886;2022-10-26T13:57:39;22.80;99.90
7792;DHT22;3940;49.892;10.886;2022-10-26T14:00:25;21.90;99.90
7792;DHT22;3940;49.892;10.886;2022-10-26T14:03:15;21.50;99.90
7792;DHT22;3940;49.892;10.886;2022-10-26T14:06:30;21.60;99.90
7792;DHT22;3940;49.892;10.886;2022-10-26T14:09:19;21.10;99.90
7792;DHT22;3940;49.892;10.886;2022-10-26T14:12:04;20.90;99.90
7792;DHT22;3940;49.892;10.886;2022-10-26T14:14:50;22.10;99.90
7792;DHT22;3940;49.892;10.886;2022-10-26T14:17:35;22.10;99.90
7792;DHT22;3940;49.892;10.886;2022-10-26T14:20:22;22.30;99.90
7792;DHT22;3940;49.892;10.886;2022-10-26T14:23:25;22.30;99.90
7792;DHT22;3940;49.892;10.886;2022-10-26T14:26:25;22.30;99.90
7792;DHT22;3940;49.892;10.886;2022-10-26T14:29:17;21.80;99.90
7792;DHT22;3940;49.892;10.886;2022-10-26T14:32:19;21.20;99.90
7792;DHT22;3940;49.892;10.886;2022-10-26T14:35:04;20.90;99.90
7792;DHT22;3940;49.892;10.886;2022-10-26T14:37:52;20.40;99.90
7792;DHT22;3940;49.892;10.886;2022-10-26T14:40:48;20.20;99.90
7792;DHT22;3940;49.892;10.886;2022-10-26T14:43:35;19.70;99.90
7792;DHT22;3940;49.892;10.886;2022-10-26T14:46:19;19.80;99.90
7792;DHT22;3940;49.892;10.886;2022-10-26T14:49:27;19.40;99.90
7792;DHT22;3940;49.892;10.886;2022-10-26T14:52:21;19.30;99.90
7792;DHT22;3940;49.892;10.886;2022-10-26T14:55:15;19.40;99.90
7792;DHT22;3940;49.892;10.886;2022-10-26T14:58:21;19.30;99.90
7792;DHT22;3940;49.892;10.886;2022-10-26T15:01:26;19.10;99.90
7792;DHT22;3940;49.892;10.886;2022-10-26T15:04:33;19.10;99.90
7792;DHT22;3940;49.892;10.886;2022-10-26T15:07:19;18.80;99.90
7792;DHT22;3940;49.892;10.886;2022-10-26T15:10:04;18.80;99.90
7792;DHT22;3940;49.892;10.886;2022-10-26T15:12:49;18.70;99.90
7792;DHT22;3940;49.892;10.886;2022-10-26T15:15:33;18.70;99.90
7792;DHT22;3940;49.892;10.886;2022-10-26T15:18:26;18.80;99.90
7792;DHT22;3940;49.892;10.886;2022-10-26T15:21:29;18.70;99.90
7792;DHT22;3940;49.892;10.886;2022-10-26T15:24:28;18.60;99.90
7792;DHT22;3940;49.892;10.886;2022-10-26T15:27:14;18.50;99.90
7792;DHT22;3940;49.892;10.886;2022-10-26T15:30:23;18.50;99.90
7792;DHT22;3940;49.892;10.886;2022-10-26T15:33:20;18.50;99.90
7792;DHT22;3940;49.892;10.886;2022-10-26T15:36:19;18.40;99.90
7792;DHT22;3940;49.892;10.886;2022-10-26T15:39:03;18.30;99.90
7792;DHT22;3940;49.892;10.886;2022-10-26T15:41:48;18.30;99.90
7792;DHT22;3940;49.892;10.886;2022-10-26T15:44:32;18.20;99.90
7792;DHT22;3940;49.892;10.886;2022-10-26T15:47:17;18.10;99.90
7792;DHT22;3940;49.892;10.886;2022-10-26T15:50:03;18.10;99.90
7792;DHT22;3940;49.892;10.886;2022-10-26T15:52:49;17.90;99.90
7792;DHT22;3940;49.892;10.886;2022-10-26T15:55:38;17.90;99.90
7792;DHT22;3940;49.892;10.886;2022-10-26T15:58:22;17.90;99.90
7792;DHT22;3940;49.892;10.886;2022-10-26T16:01:06;17.80;99.90
7792;DHT22;3940;49.892;10.886;2022-10-26T16:03:52;17.70;99.90
7792;DHT22;3940;49.892;10.886;2022-10-26T16:06:38;17.70;99.90
7792;DHT22;3940;49.892;10.886;2022-10-26T16:09:23;17.70;99.90
7792;DHT22;3940;49.892;10.886;2022-10-26T16:12:11;17.70;99.90
7792;DHT22;3940;49.892;10.886;2022-10-26T16:15:36;17.60;99.90
7792;DHT22;3940;49.892;10.886;2022-10-26T16:18:20;17.60;99.90
7792;DHT22;3940;49.892;10.886;2022-10-26T16:21:04;17.50;99.90
7792;DHT22;3940;49.892;10.886;2022-10-26T16:23:51;17.50;99.90
7792;DHT22;3940;49.892;10.886;2022-10-26T16:26:36;17.40;99.90
7792;DHT22;3940;49.892;10.886;2022-10-26T16:29:20;17.40;99.90
7792;DHT22;3940;49.892;10.886;2022-10-26T16:32:05;17.40;99.90
7792;DHT22;3940;49.892;10.886;2022-10-26T16:34:50;17.30;99.90
7792;DHT22;3940;49.892;10.886;2022-10-26T16:37:34;17.40;99.90
7792;DHT22;3940;49.892;10.886;2022-10-26T16:40:19;17.30;99.90
7792;DHT22;3940;49.892;10.886;2022-10-26T16:43:03;17.30;99.90
7792;DHT22;3940;49.892;10.886;2022-10-26T16:45:47;17.10;99.90
7792;DHT22;3940;49.892;10.886;2022-10-26T16:48:34;17.20;99.90
7792;DHT22;3940;49.892;10.886;2022-10-26T16:51:22;17.10;99.90
7792;DHT22;3940;49.892;10.886;2022-10-26T16:54:07;17.00;99.90
7792;DHT22;3940;49.892;10.886;2022-10-26T16:56:51;17.00;99.90
7792;DHT22;3940;49.892;10.886;2022-10-26T16:59:35;17.00;99.90
7792;DHT22;3940;49.892;10.886;2022-10-26T17:02:20;17.00;99.90
7792;DHT22;3940;49.892;10.886;2022-10-26T17:05:04;16.90;99.90
7792;DHT22;3940;49.892;10.886;2022-10-26T17:07:48;16.80;99.90
7792;DHT22;3940;49.892;10.886;2022-10-26T17:10:33;16.80;99.90
7792;DHT22;3940;49.892;10.886;2022-10-26T17:13:17;16.80;99.90
7792;DHT22;3940;49.892;10.886;2022-10-26T17:16:04;16.80;99.90
7792;DHT22;3940;49.892;10.886;2022-10-26T17:18:50;16.70;99.90
7792;DHT22;3940;49.892;10.886;2022-10-26T17:21:35;16.70;99.90
7792;DHT22;3940;49.892;10.886;2022-10-26T17:24:19;16.80;99.90
7792;DHT22;3940;49.892;10.886;2022-10-26T17:27:03;16.90;99.90
7792;DHT22;3940;49.892;10.886;2022-10-26T17:29:48;16.90;99.90
7792;DHT22;3940;49.892;10.886;2022-10-26T17:32:32;17.00;99.90
7792;DHT22;3940;49.892;10.886;2022-10-26T17:35:17;17.00;99.90
7792;DHT22;3940;49.892;10.886;2022-10-26T17:38:03;17.00;99.90
7792;DHT22;3940;49.892;10.886;2022-10-26T17:40:47;17.00;99.90
7792;DHT22;3940;49.892;10.886;2022-10-26T17:43:33;16.90;99.90
7792;DHT22;3940;49.892;10.886;2022-10-26T17:46:30;16.80;99.90
7792;DHT22;3940;49.892;10.886;2022-10-26T17:49:14;16.80;99.90
7792;DHT22;3940;49.892;10.886;2022-10-26T17:51:58;16.60;99.90
7792;DHT22;3940;49.892;10.886;2022-10-26T17:54:43;16.60;99.90
7792;DHT22;3940;49.892;10.886;2022-10-26T17:57:27;16.40;99.90
7792;DHT22;3940;49.892;10.886;2022-10-26T18:00:12;16.40;99.90
7792;DHT22;3940;49.892;10.886;2022-10-26T18:02:57;16.40;99.90
7792;DHT22;3940;49.892;10.886;2022-10-26T18:05:48;16.40;99.90
7792;DHT22;3940;49.892;10.886;2022-10-26T18:08:34;16.50;99.90
7792;DHT22;3940;49.892;10.886;2022-10-26T18:11:21;16.40;99.90
7792;DHT22;3940;49.892;10.886;2022-10-26T18:14:06;16.20;99.90
7792;DHT22;3940;49.892;10.886;2022-10-26T18:16:50;16.10;99.90
7792;DHT22;3940;49.892;10.886;2022-10-26T18:19:35;15.90;99.90
7792;DHT22;3940;49.892;10.886;2022-10-26T18:22:19;15.90;99.90
7792;DHT22;3940;49.892;10.886;2022-10-26T18:25:03;15.90;99.90
7792;DHT22;3940;49.892;10.886;2022-10-26T18:27:48;15.90;99.90
7792;DHT22;3940;49.892;10.886;2022-10-26T18:30:32;15.80;99.90
7792;DHT22;3940;49.892;10.886;2022-10-26T18:33:17;15.80;99.90
7792;DHT22;3940;49.892;10.886;2022-10-26T18:36:03;15.70;99.90
7792;DHT22;3940;49.892;10.886;2022-10-26T18:38:48;15.70;99.90
7792;DHT22;3940;49.892;10.886;2022-10-26T18:41:32;15.70;99.90
7792;DHT22;3940;49.892;10.886;2022-10-26T18:44:16;15.70;99.90
7792;DHT22;3940;49.892;10.886;2022-10-26T18:47:02;15.60;99.90
7792;DHT22;3940;49.892;10.886;2022-10-26T18:49:47;15.60;99.90
7792;DHT22;3940;49.892;10.886;2022-10-26T18:52:31;15.70;99.90
7792;DHT22;3940;49.892;10.886;2022-10-26T18:55:15;15.60;99.90